Time;durP1;ratioP1;P1;durP2;ratioP2;P2;SDS_P1;SDS_P2;PMS_P1;PMS_P2;Temp;Humidity;BMP_temperature;BMP_pressure;BME280_temperature;BME280_humidity;BME280_pressure;Samples;Min_cycle;Max_cycle;Signal;HPM_P1;HPM_P2
2023/12/30 00:01:15;;;;;;;0.80;0.40;;;;;;;7.11;100.00;100057.72;6050381;28;20022;-72
2023/12/30 00:04:11;;;;;;;4.28;0.95;;;;;;;7.13;100.00;100063.69;6032812;28;20069;-72
2023/12/30 00:07:07;;;;;;;1.85;0.70;;;;;;;7.08;100.00;100052.72;6049437;28;20050;-74
2023/12/30 00:10:02;;;;;;;7.18;1.75;;;;;;;7.15;100.00;100047.72;6051162;28;20034;-73
2023/12/30 00:13:01;;;;;;;2.72;0.68;;;;;;;7.16;100.00;100038.84;6050141;28;20033;-75
2023/12/30 00:16:04;;;;;;;5.32;0.85;;;;;;;7.11;100.00;100034.00;6047995;28;20045;-74
2023/12/30 00:19:00;;;;;;;1.60;0.47;;;;;;;7.16;100.00;100038.84;6041493;28;20054;-75
2023/12/30 00:21:55;;;;;;;1.73;0.60;;;;;;;7.28;100.00;100027.19;6050287;28;20033;-73
2023/12/30 00:24:54;;;;;;;2.63;0.63;;;;;;;7.22;100.00;100040.09;6047774;28;20040;-74
2023/12/30 00:27:51;;;;;;;2.28;0.90;;;;;;;7.30;100.00;100046.31;6048878;28;20045;-74
2023/12/30 00:30:47;;;;;;;3.55;1.10;;;;;;;7.28;100.00;100037.72;6049698;28;20053;-75
2023/12/30 00:33:42;;;;;;;3.03;0.90;;;;;;;7.24;100.00;100038.13;6049205;28;20482;-72
2023/12/30 00:36:42;;;;;;;2.87;0.60;;;;;;;7.14;100.00;100028.44;6048744;28;20038;-73
2023/12/30 00:39:40;;;;;;;3.63;0.80;;;;;;;7.16;100.00;100049.38;6050310;28;20422;-75
2023/12/30 00:42:35;;;;;;;3.00;0.98;;;;;;;7.01;100.00;100014.72;6049771;28;20105;-72
2023/12/30 00:45:30;;;;;;;3.17;1.00;;;;;;;6.94;100.00;100013.63;6049109;28;20037;-74
2023/12/30 00:48:26;;;;;;;1.93;0.80;;;;;;;6.84;100.00;100035.69;6049988;28;20359;-73
2023/12/30 00:51:21;;;;;;;2.08;0.70;;;;;;;6.73;100.00;100060.38;6048792;28;20037;-72
2023/12/30 00:54:17;;;;;;;2.78;0.60;;;;;;;6.64;100.00;100032.19;6049674;28;20038;-73
2023/12/30 00:57:12;;;;;;;2.55;0.70;;;;;;;6.63;100.00;100025.28;6047706;28;20036;-73
2023/12/30 01:00:08;;;;;;;1.13;0.40;;;;;;;6.77;100.00;100043.28;6049335;28;20409;-72
2023/12/30 01:03:03;;;;;;;0.77;0.40;;;;;;;6.79;100.00;100036.09;6046510;28;20025;-74
2023/12/30 01:05:59;;;;;;;0.53;0.20;;;;;;;6.76;100.00;100039.00;6048512;28;20034;-73
2023/12/30 01:08:54;;;;;;;0.47;0.40;;;;;;;6.73;100.00;100052.47;6049230;28;20052;-73
2023/12/30 01:11:49;;;;;;;2.10;0.20;;;;;;;6.62;100.00;100060.50;6049616;28;20037;-73
2023/12/30 01:14:45;;;;;;;2.10;0.20;;;;;;;6.58;100.00;100059.09;6049534;28;20041;-73
2023/12/30 01:17:40;;;;;;;1.63;0.20;;;;;;;6.63;100.00;100070.06;6048303;28;20071;-74
2023/12/30 01:20:41;;;;;;;1.57;0.30;;;;;;;6.64;100.00;100073.50;6049141;28;20033;-74
2023/12/30 01:23:37;;;;;;;0.40;0.13;;;;;;;6.67;100.00;100081.97;6050757;28;20080;-74
2023/12/30 01:26:32;;;;;;;0.57;0.20;;;;;;;6.66;100.00;100077.66;6052507;28;20445;-73
2023/12/30 01:29:29;;;;;;;4.23;0.47;;;;;;;6.72;100.00;100082.41;6054070;28;20086;-74
2023/12/30 01:32:24;;;;;;;0.10;0.10;;;;;;;6.78;100.00;100076.59;6051406;28;20659;-74
2023/12/30 01:35:22;;;;;;;0.83;0.23;;;;;;;6.76;100.00;100083.81;6051967;28;20044;-74
2023/12/30 01:38:21;;;;;;;0.38;0.20;;;;;;;6.75;100.00;100082.13;6033109;28;20029;-73
2023/12/30 01:41:19;;;;;;;1.75;0.47;;;;;;;6.74;100.00;100079.66;6051543;28;20637;-74
2023/12/30 01:44:15;;;;;;;1.10;0.20;;;;;;;6.67;100.00;100095.16;6053055;28;20121;-73
2023/12/30 01:47:10;;;;;;;0.87;0.50;;;;;;;6.60;100.00;100092.22;6052202;28;20389;-74
2023/12/30 01:50:07;;;;;;;0.23;0.10;;;;;;;6.56;100.00;100109.28;6052812;28;20025;-74
2023/12/30 01:53:02;;;;;;;0.22;0.10;;;;;;;6.51;100.00;100110.66;6064302;28;20028;-74
2023/12/30 01:55:58;;;;;;;0.53;0.20;;;;;;;6.34;100.00;100111.28;6080435;28;20061;-73
2023/12/30 01:58:53;;;;;;;0.35;0.20;;;;;;;6.12;100.00;100106.22;6056818;28;20022;-73
2023/12/30 02:01:49;;;;;;;2.27;0.20;;;;;;;6.07;100.00;100117.16;6068638;28;20037;-73
2023/12/30 02:04:50;;;;;;;1.20;0.20;;;;;;;5.98;100.00;100118.75;6059320;28;20356;-74
2023/12/30 02:07:47;;;;;;;0.68;0.25;;;;;;;5.84;100.00;100121.69;6047626;28;20025;-73
2023/12/30 02:10:43;;;;;;;2.92;0.30;;;;;;;5.67;100.00;100103.06;6041743;28;20033;-73
2023/12/30 02:13:42;;;;;;;0.38;0.10;;;;;;;5.64;100.00;100116.47;6065838;28;20125;-74
2023/12/30 02:16:38;;;;;;;2.60;0.32;;;;;;;5.73;100.00;100147.28;6054270;28;20037;-73
2023/12/30 02:19:35;;;;;;;0.55;0.22;;;;;;;5.68;100.00;100141.56;6059964;28;20041;-73
2023/12/30 02:22:36;;;;;;;0.20;0.15;;;;;;;5.57;100.00;100131.94;6081245;28;20092;-73
2023/12/30 02:25:37;;;;;;;0.20;0.10;;;;;;;5.61;100.00;100151.75;6061984;28;20048;-75
2023/12/30 02:28:32;;;;;;;0.20;0.10;;;;;;;5.76;100.00;100160.16;6054297;28;20033;-75
2023/12/30 02:31:28;;;;;;;5.10;0.30;;;;;;;5.78;100.00;100159.06;6064592;28;20065;-73
2023/12/30 02:34:23;;;;;;;2.80;0.32;;;;;;;5.85;100.00;100162.88;6057987;28;20165;-74
2023/12/30 02:37:21;;;;;;;1.13;0.13;;;;;;;5.90;100.00;100167.75;6078590;28;20029;-74
2023/12/30 02:40:20;;;;;;;0.63;0.20;;;;;;;5.91;100.00;100169.41;6054051;28;20400;-74
2023/12/30 02:43:25;;;;;;;0.10;0.10;;;;;;;5.98;100.00;100158.25;6065727;28;20492;-74
2023/12/30 02:46:24;;;;;;;2.88;0.60;;;;;;;5.98;100.00;100165.28;6061398;28;20030;-73
2023/12/30 02:49:25;;;;;;;2.40;0.28;;;;;;;5.95;100.00;100158.50;6042544;28;20474;-74
2023/12/30 02:52:22;;;;;;;1.55;0.20;;;;;;;6.08;100.00;100175.88;6053754;28;20034;-74
2023/12/30 02:55:17;;;;;;;0.82;0.50;;;;;;;6.11;100.00;100173.00;6047512;28;20555;-74
2023/12/30 02:58:14;;;;;;;1.10;0.30;;;;;;;6.18;100.00;100187.28;6054232;28;20052;-72
2023/12/30 03:01:09;;;;;;;1.02;0.38;;;;;;;6.14;100.00;100183.28;6058275;28;20379;-74
2023/12/30 03:04:09;;;;;;;1.25;0.40;;;;;;;6.17;100.00;100185.66;6042093;28;20025;-74
2023/12/30 03:07:07;;;;;;;2.72;0.50;;;;;;;6.25;100.00;100204.25;6062567;28;20033;-75
2023/12/30 03:10:04;;;;;;;2.60;0.40;;;;;;;6.11;100.00;100175.63;6040667;28;20034;-75
2023/12/30 03:13:00;;;;;;;1.33;0.30;;;;;;;6.14;100.00;100188.53;6069627;28;20030;-75
2023/12/30 03:15:55;;;;;;;3.35;0.70;;;;;;;6.21;100.00;100200.19;6066184;28;20060;-74
2023/12/30 03:18:51;;;;;;;1.48;0.47;;;;;;;6.30;100.00;100216.06;6083585;28;20091;-74
2023/12/30 03:21:49;;;;;;;6.00;0.53;;;;;;;6.22;100.00;100201.88;6057050;28;20040;-72
2023/12/30 03:24:45;;;;;;;5.28;0.95;;;;;;;6.23;100.00;100211.41;6066072;28;20032;-74
2023/12/30 03:27:41;;;;;;;2.40;0.53;;;;;;;6.22;100.00;100215.88;6057993;28;20038;-74
2023/12/30 03:30:39;;;;;;;2.57;0.73;;;;;;;6.21;100.00;100213.34;6062063;28;20441;-73
2023/12/30 03:33:34;;;;;;;4.13;0.50;;;;;;;6.25;100.00;100214.78;6057348;28;20041;-72
2023/12/30 03:36:30;;;;;;;1.23;0.50;;;;;;;6.18;100.00;100218.88;6062665;28;20107;-73
2023/12/30 03:39:25;;;;;;;3.60;0.33;;;;;;;6.14;100.00;100217.50;6064010;28;20272;-73
2023/12/30 03:42:20;;;;;;;2.30;0.43;;;;;;;6.16;100.00;100226.09;6064240;28;20049;-73
2023/12/30 03:45:16;;;;;;;3.00;0.60;;;;;;;6.09;100.00;100225.75;6068690;28;20108;-73
2023/12/30 03:48:11;;;;;;;4.23;0.67;;;;;;;6.12;100.00;100238.66;6062784;28;20029;-74
2023/12/30 03:51:06;;;;;;;4.33;0.80;;;;;;;6.09;100.00;100236.28;6066219;28;20021;-73
2023/12/30 03:54:02;;;;;;;3.70;0.50;;;;;;;6.01;100.00;100233.47;6052521;28;20343;-73
2023/12/30 03:56:57;;;;;;;2.30;0.80;;;;;;;6.01;100.00;100243.19;6053171;28;20465;-73
2023/12/30 03:59:52;;;;;;;1.73;0.53;;;;;;;5.95;100.00;100237.44;6057318;28;20383;-73
2023/12/30 04:02:48;;;;;;;4.78;0.65;;;;;;;6.04;100.00;100253.41;6062086;28;20029;-71
2023/12/30 04:05:43;;;;;;;2.80;0.67;;;;;;;6.01;100.00;100251.88;6059886;28;20033;-73
2023/12/30 04:08:38;;;;;;;2.17;0.50;;;;;;;6.07;100.00;100246.09;6058316;28;20295;-73
2023/12/30 04:11:35;;;;;;;2.00;0.50;;;;;;;6.06;100.00;100249.69;6053408;28;20048;-73
2023/12/30 04:14:30;;;;;;;0.40;0.25;;;;;;;6.05;100.00;100257.72;6038799;28;20045;-73
2023/12/30 04:17:28;;;;;;;4.43;0.70;;;;;;;5.95;100.00;100261.13;6064903;28;20493;-73
2023/12/30 04:20:24;;;;;;;3.13;0.70;;;;;;;5.84;100.00;100242.72;6036441;28;20057;-72
2023/12/30 04:23:19;;;;;;;2.83;0.60;;;;;;;5.80;100.00;100259.75;6060557;28;20037;-72
2023/12/30 04:26:14;;;;;;;1.00;0.40;;;;;;;5.88;100.00;100277.56;6061822;28;20038;-72
2023/12/30 04:29:10;;;;;;;1.83;0.50;;;;;;;5.85;100.00;100265.47;6064019;28;20045;-72
2023/12/30 04:32:06;;;;;;;4.28;0.50;;;;;;;5.71;100.00;100268.38;6066087;28;20041;-72
2023/12/30 04:35:01;;;;;;;3.17;0.60;;;;;;;5.81;100.00;100279.84;6050636;28;20030;-73
2023/12/30 04:37:56;;;;;;;1.13;0.40;;;;;;;5.73;100.00;100258.59;6060706;28;20461;-73
2023/12/30 04:40:58;;;;;;;2.07;0.53;;;;;;;5.72;100.00;100264.81;6054501;28;20065;-73
2023/12/30 04:43:57;;;;;;;3.28;0.70;;;;;;;5.62;100.00;100268.31;6053381;28;20023;-73
2023/12/30 04:46:56;;;;;;;3.15;0.50;;;;;;;5.59;100.00;100277.28;6049265;28;20040;-73
2023/12/30 04:49:51;;;;;;;5.72;0.90;;;;;;;5.55;100.00;100281.13;6050639;28;20061;-74
2023/12/30 04:52:47;;;;;;;1.87;0.60;;;;;;;5.41;100.00;100273.50;6060603;28;20033;-72
2023/12/30 04:55:43;;;;;;;9.15;0.70;;;;;;;5.30;100.00;100265.66;6067611;28;20109;-74
2023/12/30 04:58:40;;;;;;;3.28;0.60;;;;;;;5.31;100.00;100270.81;6060156;28;20037;-73
2023/12/30 05:01:37;;;;;;;2.13;0.45;;;;;;;5.28;100.00;100272.84;6051172;28;20034;-72
2023/12/30 05:04:32;;;;;;;6.32;0.70;;;;;;;5.36;100.00;100288.81;6055129;28;20103;-72
2023/12/30 05:07:31;;;;;;;3.40;0.73;;;;;;;5.37;100.00;100290.50;6050136;28;20140;-72
2023/12/30 05:10:26;;;;;;;3.47;0.63;;;;;;;5.40;100.00;100296.34;6059056;28;20272;-71
2023/12/30 05:13:21;;;;;;;4.57;0.70;;;;;;;5.51;100.00;100298.13;6055041;28;20129;-73
2023/12/30 05:16:17;;;;;;;4.33;0.73;;;;;;;5.58;100.00;100309.81;6054554;28;20768;-73
2023/12/30 05:19:12;;;;;;;8.02;0.80;;;;;;;5.52;100.00;100291.88;6064805;28;20503;-73
2023/12/30 05:22:08;;;;;;;3.85;0.60;;;;;;;5.43;100.00;100282.94;6058018;28;20108;-73
2023/12/30 05:25:05;;;;;;;2.88;0.80;;;;;;;5.43;100.00;100294.44;6052274;28;20095;-73
2023/12/30 05:28:03;;;;;;;5.15;1.02;;;;;;;5.36;100.00;100301.97;6074028;28;20025;-74
2023/12/30 05:30:58;;;;;;;3.53;0.45;;;;;;;5.40;100.00;100314.75;6063246;28;20032;-73
2023/12/30 05:34:06;;;;;;;5.30;0.50;;;;;;;5.33;100.00;100316.19;6060028;28;20033;-74
2023/12/30 05:37:05;;;;;;;4.47;0.65;;;;;;;5.34;100.00;100309.16;6055569;28;20102;-73
2023/12/30 05:40:06;;;;;;;7.53;1.38;;;;;;;5.35;100.00;100318.72;6039655;28;20042;-73
2023/12/30 05:43:09;;;;;;;2.13;0.60;;;;;;;5.37;100.00;100325.53;6050481;28;20165;-74
2023/12/30 05:46:11;;;;;;;4.25;0.68;;;;;;;5.30;100.00;100308.53;6061109;28;20037;-74
2023/12/30 05:49:07;;;;;;;5.57;0.93;;;;;;;5.48;100.00;100337.81;6060637;28;20053;-73
2023/12/30 05:52:05;;;;;;;1.90;0.77;;;;;;;5.41;100.00;100319.03;6065153;28;20026;-74
2023/12/30 05:55:00;;;;;;;2.70;0.82;;;;;;;5.34;100.00;100317.88;6063316;28;20112;-73
2023/12/30 05:57:58;;;;;;;3.75;0.68;;;;;;;5.51;100.00;100329.69;6052743;28;20040;-73
2023/12/30 06:00:54;;;;;;;6.15;0.82;;;;;;;5.39;100.00;100317.50;6049521;28;20513;-73
2023/12/30 06:03:49;;;;;;;4.22;1.20;;;;;;;5.60;100.00;100333.38;6051211;28;20030;-72
2023/12/30 06:06:48;;;;;;;6.57;1.63;;;;;;;5.49;100.00;100328.94;6046251;28;20038;-73
2023/12/30 06:09:47;;;;;;;1.73;0.90;;;;;;;5.45;100.00;100329.31;6051672;28;20022;-73
2023/12/30 06:12:43;;;;;;;2.63;0.70;;;;;;;5.51;100.00;100355.97;6044758;28;20116;-73
2023/12/30 06:15:39;;;;;;;1.60;0.90;;;;;;;5.51;100.00;100350.72;6055741;28;20140;-72
2023/12/30 06:18:38;;;;;;;4.72;0.82;;;;;;;5.57;100.00;100357.28;6057025;28;20030;-73
2023/12/30 06:21:43;;;;;;;4.47;1.80;;;;;;;5.52;100.00;100356.81;6066517;28;20092;-73
2023/12/30 06:24:39;;;;;;;5.00;1.25;;;;;;;5.49;100.00;100362.31;6064917;28;20062;-73
2023/12/30 06:27:34;;;;;;;5.00;0.90;;;;;;;5.53;100.00;100375.09;6059706;28;20051;-73
2023/12/30 06:30:29;;;;;;;10.27;1.13;;;;;;;5.51;100.00;100376.16;6067618;28;20381;-73
2023/12/30 06:33:25;;;;;;;5.75;1.00;;;;;;;5.59;100.00;100381.66;6053534;28;20285;-72
2023/12/30 06:36:23;;;;;;;3.23;1.10;;;;;;;5.58;100.00;100393.13;6055615;28;20030;-73
2023/12/30 06:39:21;;;;;;;7.38;1.35;;;;;;;5.53;100.00;100380.34;6054358;28;20759;-74
2023/12/30 06:42:16;;;;;;;7.30;1.38;;;;;;;5.58;100.00;100388.69;6067059;28;20030;-73
2023/12/30 06:45:14;;;;;;;3.80;1.10;;;;;;;5.53;100.00;100385.59;6065054;28;20034;-72
2023/12/30 06:48:10;;;;;;;4.88;1.10;;;;;;;5.48;100.00;100382.50;6059292;28;20040;-73
2023/12/30 06:51:10;;;;;;;7.03;1.77;;;;;;;5.52;100.00;100399.69;6062231;28;20033;-73
2023/12/30 06:54:05;;;;;;;5.10;1.10;;;;;;;5.55;100.00;100412.59;6073852;28;20026;-73
2023/12/30 06:57:06;;;;;;;2.78;1.40;;;;;;;5.54;100.00;100412.75;6057617;28;20093;-73
2023/12/30 07:00:02;;;;;;;5.72;1.15;;;;;;;5.58;100.00;100416.78;6049028;28;20021;-71
2023/12/30 07:02:58;;;;;;;5.85;1.40;;;;;;;5.58;100.00;100417.63;6056243;28;20052;-72
2023/12/30 07:05:53;;;;;;;6.50;1.43;;;;;;;5.63;100.00;100428.63;6077659;28;20026;-72
2023/12/30 07:08:51;;;;;;;5.00;1.40;;;;;;;5.54;100.00;100424.09;6067190;28;20276;-73
2023/12/30 07:11:50;;;;;;;8.05;1.77;;;;;;;5.44;100.00;100412.63;6063141;28;20030;-74
2023/12/30 07:14:45;;;;;;;4.40;1.20;;;;;;;5.63;100.00;100435.66;6056353;28;20524;-73
2023/12/30 07:17:40;;;;;;;6.40;1.40;;;;;;;5.63;100.00;100448.81;6062867;28;20063;-72
2023/12/30 07:20:36;;;;;;;5.23;1.30;;;;;;;5.58;100.00;100441.28;6057643;28;20091;-74
2023/12/30 07:23:31;;;;;;;6.77;1.47;;;;;;;5.52;100.00;100441.78;6057475;28;20049;-72
2023/12/30 07:26:26;;;;;;;3.03;1.27;;;;;;;5.54;100.00;100450.41;6058972;28;20057;-72
2023/12/30 07:29:22;;;;;;;10.63;1.40;;;;;;;5.63;100.00;100447.03;6064068;28;20056;-74
2023/12/30 07:32:18;;;;;;;8.27;1.70;;;;;;;5.61;100.00;100456.84;6057748;28;20392;-73
2023/12/30 07:35:13;;;;;;;5.32;1.45;;;;;;;5.55;100.00;100449.41;6049567;28;20116;-73
2023/12/30 07:38:09;;;;;;;5.25;1.45;;;;;;;5.69;100.00;100454.44;6065000;28;20041;-73
2023/12/30 07:41:04;;;;;;;3.97;1.10;;;;;;;5.67;100.00;100445.84;6054376;28;20370;-74
2023/12/30 07:44:00;;;;;;;3.83;1.10;;;;;;;5.64;100.00;100445.22;6050761;28;20046;-73
2023/12/30 07:47:06;;;;;;;7.20;1.43;;;;;;;5.71;100.00;100442.00;6054120;28;20043;-72
2023/12/30 07:50:02;;;;;;;13.23;1.55;;;;;;;5.76;100.00;100449.53;6010539;28;20107;-73
2023/12/30 07:52:58;;;;;;;6.18;1.52;;;;;;;5.77;100.00;100456.44;6053864;28;20091;-72
2023/12/30 07:55:53;;;;;;;6.27;1.40;;;;;;;5.72;100.00;100455.97;6052887;28;20091;-73
2023/12/30 07:58:48;;;;;;;6.37;1.33;;;;;;;5.71;100.00;100455.16;6051983;28;20558;-72
2023/12/30 08:01:43;;;;;;;5.93;1.33;;;;;;;5.85;100.00;100470.72;6052116;28;20224;-71
2023/12/30 08:04:41;;;;;;;8.47;1.77;;;;;;;5.87;100.00;100467.97;6050429;28;20030;-73
2023/12/30 08:07:37;;;;;;;5.82;1.40;;;;;;;5.83;100.00;100471.75;6049444;28;20273;-73
2023/12/30 08:10:35;;;;;;;3.55;1.02;;;;;;;5.89;100.00;100466.88;6050484;28;20037;-73
2023/12/30 08:13:30;;;;;;;4.50;1.40;;;;;;;5.98;100.00;100462.66;6052412;28;20079;-73
2023/12/30 08:16:25;;;;;;;5.40;1.27;;;;;;;6.07;100.00;100474.25;6062459;28;20397;-72
2023/12/30 08:19:21;;;;;;;9.80;3.63;;;;;;;6.14;100.00;100480.72;6059114;28;20026;-73
2023/12/30 08:22:18;;;;;;;9.03;1.90;;;;;;;6.14;100.00;100473.66;6063881;28;20036;-73
2023/12/30 08:25:13;;;;;;;8.73;1.70;;;;;;;6.13;100.00;100479.88;6060431;28;20029;-73
2023/12/30 08:28:09;;;;;;;6.27;1.30;;;;;;;6.17;100.00;100475.22;6064664;28;20408;-72
2023/12/30 08:31:04;;;;;;;4.37;1.23;;;;;;;6.16;100.00;100481.41;6056340;28;20276;-73
2023/12/30 08:33:59;;;;;;;7.10;1.30;;;;;;;6.21;100.00;100477.47;6055955;28;20030;-72
2023/12/30 08:36:55;;;;;;;4.03;1.30;;;;;;;6.18;100.00;100480.31;6063191;28;20030;-73
2023/12/30 08:39:50;;;;;;;5.03;1.23;;;;;;;6.16;100.00;100478.78;6055293;28;20033;-74
2023/12/30 08:42:45;;;;;;;2.67;1.20;;;;;;;6.34;100.00;100493.09;6058084;28;20069;-71
2023/12/30 08:45:41;;;;;;;5.50;1.60;;;;;;;6.44;100.00;100500.09;6046024;28;20038;-71
2023/12/30 08:48:37;;;;;;;3.57;1.27;;;;;;;6.47;100.00;100491.13;6051088;28;20276;-72
2023/12/30 08:51:33;;;;;;;5.40;1.42;;;;;;;6.49;100.00;100512.94;6049586;28;20025;-73
2023/12/30 08:54:29;;;;;;;3.55;1.17;;;;;;;6.48;100.00;100503.34;6053296;28;20044;-73
2023/12/30 08:57:24;;;;;;;4.22;1.40;;;;;;;6.62;100.00;100518.00;6045832;28;20199;-72
2023/12/30 09:00:19;;;;;;;6.27;1.63;;;;;;;6.58;100.00;100506.88;6053412;28;20408;-73
2023/12/30 09:03:15;;;;;;;9.25;1.60;;;;;;;6.64;100.00;100521.34;6064089;28;20272;-73
2023/12/30 09:06:11;;;;;;;3.13;1.20;;;;;;;6.69;100.00;100519.16;6026689;28;20116;-72
2023/12/30 09:09:06;;;;;;;4.53;1.20;;;;;;;6.72;100.00;100521.56;6051741;28;20048;-71
2023/12/30 09:12:02;;;;;;;6.17;1.23;;;;;;;6.81;100.00;100537.47;6057327;28;20783;-72
2023/12/30 09:15:02;;;;;;;4.57;1.48;;;;;;;6.98;100.00;100544.81;6051829;28;20380;-73
2023/12/30 09:18:00;;;;;;;3.78;1.00;;;;;;;7.00;100.00;100545.53;6050752;28;20079;-72
2023/12/30 09:20:56;;;;;;;11.05;1.27;;;;;;;7.04;100.00;100552.19;6062587;28;20033;-73
2023/12/30 09:23:52;;;;;;;6.15;1.17;;;;;;;7.06;100.00;100557.34;6050631;28;20441;-74
2023/12/30 09:26:47;;;;;;;3.45;1.05;;;;;;;7.15;100.00;100561.84;6048881;28;20038;-71
2023/12/30 09:29:42;;;;;;;2.93;0.83;;;;;;;7.23;100.00;100569.16;6052632;28;20028;-72
2023/12/30 09:32:38;;;;;;;4.10;1.20;;;;;;;7.26;100.00;100560.94;6051624;28;20812;-73
2023/12/30 09:35:33;;;;;;;8.27;1.40;;;;;;;7.34;100.00;100583.09;6052664;28;20308;-72
2023/12/30 09:38:28;;;;;;;7.40;1.43;;;;;;;7.40;100.00;100581.72;6062654;28;20506;-72
2023/12/30 09:41:26;;;;;;;5.57;1.10;;;;;;;7.51;100.00;100586.94;6061884;28;20072;-71
2023/12/30 09:44:23;;;;;;;4.88;1.13;;;;;;;7.57;100.00;100586.44;6061401;28;20038;-72
2023/12/30 09:47:19;;;;;;;7.95;1.35;;;;;;;7.52;100.00;100584.19;6058646;28;20034;-72
2023/12/30 09:50:14;;;;;;;8.20;1.40;;;;;;;7.54;100.00;100590.16;6072608;28;20092;-72
2023/12/30 09:53:10;;;;;;;6.70;1.00;;;;;;;7.52;100.00;100592.09;6057820;28;20040;-72
2023/12/30 09:56:06;;;;;;;6.03;1.30;;;;;;;7.42;100.00;100583.28;6062679;28;20109;-71
2023/12/30 09:59:01;;;;;;;3.47;1.10;;;;;;;7.50;100.00;100598.47;6059661;28;20032;-73
2023/12/30 10:01:57;;;;;;;5.28;1.52;;;;;;;7.51;100.00;100592.22;6068041;28;20037;-72
2023/12/30 10:04:53;;;;;;;5.03;1.02;;;;;;;7.43;100.00;100589.38;6081537;28;20401;-72
2023/12/30 10:07:49;;;;;;;4.78;1.25;;;;;;;7.43;100.00;100584.97;6067700;28;20021;-72
2023/12/30 10:10:52;;;;;;;4.97;1.30;;;;;;;7.44;100.00;100591.06;6055951;28;20046;-73
2023/12/30 10:13:48;;;;;;;5.97;1.20;;;;;;;7.49;100.00;100602.06;6063698;28;20048;-71
2023/12/30 10:16:43;;;;;;;3.20;1.37;;;;;;;7.54;100.00;100605.16;6057005;28;20041;-72
2023/12/30 10:19:41;;;;;;;10.63;1.52;;;;;;;7.53;100.00;100606.09;6049316;28;20064;-73
2023/12/30 10:22:37;;;;;;;5.35;1.15;;;;;;;7.55;100.00;100591.00;6070517;28;20037;-73
2023/12/30 10:25:33;;;;;;;5.68;1.30;;;;;;;7.49;100.00;100607.34;6058128;28;20030;-73
2023/12/30 10:28:28;;;;;;;5.97;1.27;;;;;;;7.53;100.00;100611.38;6067863;28;20037;-73
2023/12/30 10:31:24;;;;;;;13.43;1.75;;;;;;;7.55;100.00;100615.59;6064924;28;20038;-72
2023/12/30 10:34:20;;;;;;;5.82;1.33;;;;;;;7.48;100.00;100614.41;6059872;28;20064;-72
2023/12/30 10:37:16;;;;;;;5.03;1.10;;;;;;;7.52;100.00;100617.66;6062475;28;20047;-72
2023/12/30 10:40:11;;;;;;;2.85;1.30;;;;;;;7.51;100.00;100602.78;6065152;28;20037;-72
2023/12/30 10:43:08;;;;;;;4.07;1.30;;;;;;;7.55;100.00;100593.66;6058954;28;20029;-73
2023/12/30 10:46:11;;;;;;;4.57;1.10;;;;;;;7.53;100.00;100596.41;6063800;28;20486;-72
2023/12/30 10:49:10;;;;;;;3.13;1.40;;;;;;;7.58;100.00;100588.13;6041428;28;20057;-72
2023/12/30 10:52:08;;;;;;;3.40;1.33;;;;;;;7.60;100.00;100607.28;6075348;28;20556;-73
2023/12/30 10:55:11;;;;;;;2.38;1.20;;;;;;;7.61;100.00;100601.06;6077438;28;20057;-72
2023/12/30 10:58:12;;;;;;;3.63;1.33;;;;;;;7.66;100.00;100614.69;6050473;28;20137;-73
2023/12/30 11:01:11;;;;;;;6.05;1.10;;;;;;;7.63;100.00;100612.31;6062344;28;20528;-72
2023/12/30 11:04:14;;;;;;;4.25;1.55;;;;;;;7.71;100.00;100609.84;6054803;28;20029;-74
2023/12/30 11:07:11;;;;;;;7.50;1.35;;;;;;;7.69;100.00;100607.31;6077711;28;20492;-73
2023/12/30 11:10:26;;;;;;;6.15;1.20;;;;;;;7.73;100.00;100602.63;6059533;28;20041;-74
2023/12/30 11:13:21;;;;;;;3.00;0.98;;;;;;;7.70;100.00;100585.25;6055254;28;20121;-73
2023/12/30 11:16:19;;;;;;;6.80;1.27;;;;;;;7.65;100.00;100590.09;6053928;28;20029;-74
2023/12/30 11:19:27;;;;;;;5.63;1.20;;;;;;;7.80;100.00;100594.06;6060007;28;20088;-73
2023/12/30 11:22:23;;;;;;;7.22;1.67;;;;;;;7.81;100.00;100592.25;6065019;28;20041;-73
2023/12/30 11:25:19;;;;;;;5.18;1.42;;;;;;;7.83;100.00;100585.03;6084008;28;20036;-73
2023/12/30 11:28:19;;;;;;;4.00;1.50;;;;;;;7.78;100.00;100576.69;6063134;28;20034;-73
2023/12/30 11:31:15;;;;;;;7.20;1.30;;;;;;;7.79;100.00;100583.63;6062987;28;20042;-73
2023/12/30 11:34:11;;;;;;;7.68;1.30;;;;;;;7.75;100.00;100563.75;6056368;28;20041;-73
2023/12/30 11:37:09;;;;;;;5.28;1.10;;;;;;;7.90;100.00;100567.72;6053302;28;20033;-74
2023/12/30 11:40:06;;;;;;;3.63;1.27;;;;;;;7.84;100.00;100570.88;6061860;28;20068;-73
2023/12/30 11:43:02;;;;;;;5.93;1.50;;;;;;;7.87;100.00;100590.91;6058868;28;20032;-73
2023/12/30 11:45:58;;;;;;;5.72;1.27;;;;;;;7.92;100.00;100584.25;6064770;28;20053;-73
2023/12/30 11:48:53;;;;;;;8.15;1.42;;;;;;;7.87;100.00;100565.34;6058666;28;20112;-72
2023/12/30 11:51:49;;;;;;;7.88;1.60;;;;;;;7.90;100.00;100566.88;6058397;28;20558;-74
2023/12/30 11:54:46;;;;;;;3.45;1.33;;;;;;;7.92;100.00;100565.78;6055266;28;20068;-71
2023/12/30 11:57:41;;;;;;;6.78;1.42;;;;;;;7.94;100.00;100574.38;6058834;28;20044;-73
2023/12/30 12:00:36;;;;;;;7.00;1.90;;;;;;;7.96;100.00;100571.63;6056889;28;20034;-73
2023/12/30 12:03:31;;;;;;;6.00;1.70;;;;;;;7.99;100.00;100571.38;6060777;28;20265;-74
2023/12/30 12:06:27;;;;;;;4.03;1.30;;;;;;;7.94;100.00;100578.81;6061932;28;20033;-72
2023/12/30 12:09:22;;;;;;;3.37;1.30;;;;;;;7.93;100.00;100572.75;6059533;28;20059;-73
2023/12/30 12:12:21;;;;;;;8.67;1.57;;;;;;;7.89;100.00;100570.47;6065638;28;20045;-73
2023/12/30 12:15:17;;;;;;;4.45;1.67;;;;;;;7.85;100.00;100569.09;6062078;28;20423;-72
2023/12/30 12:18:12;;;;;;;6.32;1.50;;;;;;;7.89;100.00;100573.94;6067119;28;20041;-74
2023/12/30 12:21:12;;;;;;;9.70;2.07;;;;;;;7.87;100.00;100577.69;6066079;28;20094;-72
2023/12/30 12:24:07;;;;;;;7.40;1.52;;;;;;;7.89;100.00;100576.59;6066546;28;20700;-73
2023/12/30 12:27:03;;;;;;;5.35;1.70;;;;;;;7.98;100.00;100588.16;6075189;28;20037;-73
2023/12/30 12:29:59;;;;;;;7.85;1.80;;;;;;;7.91;100.00;100584.41;6063627;28;20033;-71
2023/12/30 12:32:55;;;;;;;8.93;1.70;;;;;;;7.86;100.00;100595.34;6057449;28;20042;-72
2023/12/30 12:35:50;;;;;;;7.13;1.20;;;;;;;7.82;100.00;100591.31;6055450;28;20033;-72
2023/12/30 12:38:47;;;;;;;8.82;1.42;;;;;;;7.72;100.00;100593.03;6052972;28;20089;-72
2023/12/30 12:41:44;;;;;;;6.72;2.05;;;;;;;7.71;100.00;100599.28;6069632;28;20673;-72
2023/12/30 12:44:40;;;;;;;7.00;1.60;;;;;;;7.71;100.00;100604.56;6065100;28;20025;-71
2023/12/30 12:47:35;;;;;;;8.82;1.60;;;;;;;7.69;100.00;100614.44;6061711;28;20068;-72
2023/12/30 12:50:31;;;;;;;5.63;1.80;;;;;;;7.67;100.00;100608.44;6063698;28;20432;-70
2023/12/30 12:53:26;;;;;;;7.53;1.90;;;;;;;7.74;100.00;100599.03;6062547;28;20286;-71
2023/12/30 12:56:21;;;;;;;4.83;1.80;;;;;;;7.79;100.00;100591.56;6063470;28;20025;-72
2023/12/30 12:59:17;;;;;;;8.30;1.87;;;;;;;8.00;100.00;100589.72;6063092;28;20036;-70
2023/12/30 13:02:13;;;;;;;4.30;1.88;;;;;;;7.99;100.00;100593.31;6063061;28;20030;-72
2023/12/30 13:05:15;;;;;;;4.68;1.83;;;;;;;8.12;100.00;100593.09;6058163;28;20039;-72
2023/12/30 13:08:10;;;;;;;20.75;2.60;;;;;;;8.14;100.00;100592.00;6063487;28;20044;-70
2023/12/30 13:11:05;;;;;;;9.47;1.90;;;;;;;8.14;100.00;100592.00;6061138;28;20037;-72
2023/12/30 13:14:03;;;;;;;6.03;1.90;;;;;;;8.12;100.00;100583.38;6057693;28;20397;-74
2023/12/30 13:17:00;;;;;;;7.72;1.90;;;;;;;8.18;100.00;100582.81;6050743;28;20780;-72
2023/12/30 13:19:56;;;;;;;3.97;1.83;;;;;;;8.11;100.00;100584.34;6052099;28;20497;-72
2023/12/30 13:22:56;;;;;;;4.63;1.60;;;;;;;8.07;100.00;100601.41;6066055;28;20042;-72
2023/12/30 13:25:52;;;;;;;7.60;1.88;;;;;;;8.03;100.00;100593.88;6060198;28;20130;-72
2023/12/30 13:28:47;;;;;;;4.77;1.60;;;;;;;7.94;100.00;100600.78;6067093;28;20040;-72
2023/12/30 13:31:47;;;;;;;4.17;1.57;;;;;;;7.85;100.00;100585.75;6069616;28;20040;-72
2023/12/30 13:34:43;;;;;;;5.25;1.63;;;;;;;7.94;100.00;100602.59;6061524;28;20033;-73
2023/12/30 13:37:42;;;;;;;9.23;1.70;;;;;;;7.91;100.00;100593.13;6069397;28;20041;-74
2023/12/30 13:41:10;;;;;;;5.35;1.48;;;;;;;7.87;100.00;100594.38;6061106;28;20042;-73